Time;durP1;ratioP1;P1;durP2;ratioP2;P2;SDS_P1;SDS_P2;PMS_P1;PMS_P2;Temp;Humidity;BMP_temperature;BMP_pressure;BME280_temperature;BME280_humidity;BME280_pressure;Samples;Min_cycle;Max_cycle;Signal;HPM_P1;HPM_P2
2021/06/16 00:00:32;;;;;;;11.93;9.27;;;17.40;99.90;;;;;;4971032;28;20286;-78
2021/06/16 00:02:59;;;;;;;10.30;9.20;;;17.40;99.90;;;;;;4954326;28;20282;-77
2021/06/16 00:05:27;;;;;;;14.30;9.23;;;17.40;99.90;;;;;;4966286;28;20273;-77
2021/06/16 00:07:55;;;;;;;12.03;9.40;;;17.40;99.90;;;;;;4956492;28;20242;-77
2021/06/16 00:10:25;;;;;;;14.00;9.80;;;17.40;99.90;;;;;;4964473;28;20202;-78
2021/06/16 00:12:54;;;;;;;11.93;9.03;;;17.30;99.90;;;;;;4969065;28;20250;-77
2021/06/16 00:15:23;;;;;;;10.97;9.67;;;17.30;99.90;;;;;;4954242;28;20703;-77
2021/06/16 00:17:50;;;;;;;11.70;9.43;;;17.30;99.90;;;;;;4953472;28;20752;-77
2021/06/16 00:20:17;;;;;;;10.10;8.97;;;17.30;99.90;;;;;;4967815;28;20245;-77
2021/06/16 00:22:44;;;;;;;11.30;9.10;;;17.40;99.90;;;;;;4973420;28;20230;-78
2021/06/16 00:25:12;;;;;;;10.67;9.53;;;17.30;99.90;;;;;;4971761;28;20273;-78
2021/06/16 00:27:39;;;;;;;12.43;9.37;;;17.30;99.90;;;;;;4967388;28;20306;-78
2021/06/16 00:30:09;;;;;;;11.37;9.20;;;17.30;99.90;;;;;;4964919;28;20858;-77
2021/06/16 00:32:37;;;;;;;10.20;8.73;;;17.20;99.90;;;;;;4952310;28;20262;-78
2021/06/16 00:35:06;;;;;;;10.63;8.60;;;17.20;99.90;;;;;;4936358;29;20295;-77
2021/06/16 00:37:34;;;;;;;10.10;8.73;;;17.20;99.90;;;;;;4960036;28;20234;-77
2021/06/16 00:40:01;;;;;;;10.47;9.13;;;17.20;99.90;;;;;;4971832;28;20680;-77
2021/06/16 00:42:28;;;;;;;10.57;8.90;;;17.10;99.90;;;;;;4959173;28;20219;-77
2021/06/16 00:44:55;;;;;;;9.90;8.83;;;17.10;99.90;;;;;;4953946;29;20234;-77
2021/06/16 00:47:23;;;;;;;11.67;8.33;;;17.10;99.90;;;;;;4953135;28;20286;-77
2021/06/16 00:49:50;;;;;;;11.67;9.13;;;17.10;99.90;;;;;;4957644;28;20309;-77
2021/06/16 00:52:17;;;;;;;13.47;9.27;;;17.00;99.90;;;;;;4973053;28;20321;-78
2021/06/16 00:54:44;;;;;;;12.80;8.77;;;17.00;99.90;;;;;;4962969;28;20298;-77
2021/06/16 00:57:11;;;;;;;11.17;9.60;;;17.00;99.90;;;;;;4970829;28;20252;-78
2021/06/16 00:59:46;;;;;;;10.90;9.77;;;16.90;99.90;;;;;;4969338;28;20241;-77
2021/06/16 01:02:14;;;;;;;13.40;9.90;;;17.00;99.90;;;;;;4965552;28;20201;-77
2021/06/16 01:04:43;;;;;;;11.57;10.30;;;17.00;99.90;;;;;;4973146;28;20206;-79
2021/06/16 01:07:14;;;;;;;12.83;9.13;;;16.90;99.90;;;;;;4971372;28;20284;-78
2021/06/16 01:09:48;;;;;;;12.43;10.63;;;16.90;99.90;;;;;;4973101;28;20535;-77
2021/06/16 01:12:21;;;;;;;12.27;10.07;;;16.90;99.90;;;;;;4968986;28;20314;-77
2021/06/16 01:14:51;;;;;;;11.93;10.03;;;17.00;99.90;;;;;;4972512;28;20259;-78
2021/06/16 01:17:23;;;;;;;12.67;10.17;;;17.00;99.90;;;;;;4972738;28;20294;-78
2021/06/16 01:20:04;;;;;;;11.97;10.00;;;17.00;99.90;;;;;;4954399;28;20286;-78
2021/06/16 01:22:40;;;;;;;12.27;10.50;;;17.00;99.90;;;;;;4966511;28;20210;-78
2021/06/16 01:25:10;;;;;;;12.00;9.60;;;16.90;99.90;;;;;;4972858;28;20234;-78
2021/06/16 01:27:40;;;;;;;11.37;10.17;;;16.80;99.90;;;;;;4962319;28;20235;-78
2021/06/16 01:30:08;;;;;;;12.93;9.63;;;16.90;99.90;;;;;;4972383;28;20629;-78
2021/06/16 01:32:36;;;;;;;13.77;10.10;;;16.90;99.90;;;;;;4972657;28;20325;-77
2021/06/16 01:35:04;;;;;;;11.57;10.37;;;16.90;99.90;;;;;;4971292;28;20551;-78
2021/06/16 01:37:31;;;;;;;13.90;10.33;;;17.00;99.90;;;;;;4962939;28;20257;-77
2021/06/16 01:39:59;;;;;;;11.30;10.13;;;17.00;99.90;;;;;;4955480;28;20203;-78
2021/06/16 01:42:28;;;;;;;12.37;10.27;;;17.00;99.90;;;;;;4968141;28;20258;-78
2021/06/16 01:44:58;;;;;;;12.53;10.20;;;17.00;99.90;;;;;;4964431;28;20234;-77
2021/06/16 01:47:25;;;;;;;13.77;10.10;;;17.00;99.90;;;;;;4976208;28;20233;-77
2021/06/16 01:49:54;;;;;;;11.03;9.83;;;17.00;99.90;;;;;;4956977;28;20321;-77
2021/06/16 01:52:23;;;;;;;11.13;9.93;;;17.00;99.90;;;;;;4956984;29;20262;-78
2021/06/16 01:54:51;;;;;;;10.87;9.77;;;17.00;99.90;;;;;;4975407;28;20206;-77
2021/06/16 01:57:19;;;;;;;11.83;9.60;;;17.00;99.90;;;;;;4974109;28;20639;-78
2021/06/16 01:59:47;;;;;;;14.27;10.97;;;17.00;99.90;;;;;;4956608;28;20210;-77
2021/06/16 02:02:15;;;;;;;11.47;10.13;;;17.00;99.90;;;;;;4963240;28;20286;-77
2021/06/16 02:04:42;;;;;;;11.30;10.03;;;17.00;99.90;;;;;;4957051;29;20614;-77
2021/06/16 02:07:14;;;;;;;11.90;10.10;;;17.00;99.90;;;;;;4956727;29;20235;-78
2021/06/16 02:09:41;;;;;;;14.10;9.90;;;16.90;99.90;;;;;;4963840;28;20206;-78
2021/06/16 02:12:14;;;;;;;12.33;8.53;;;16.80;99.90;;;;;;4968558;28;20304;-77
2021/06/16 02:14:48;;;;;;;9.67;8.27;;;16.70;99.90;;;;;;4975355;28;20234;-77
2021/06/16 02:17:17;;;;;;;12.47;8.40;;;16.60;99.90;;;;;;4975282;28;20234;-78
2021/06/16 02:19:47;;;;;;;11.20;9.20;;;16.50;99.90;;;;;;4975940;28;20661;-77
2021/06/16 02:22:15;;;;;;;10.70;9.60;;;16.50;99.90;;;;;;4959282;28;20241;-78
2021/06/16 02:24:44;;;;;;;11.97;10.03;;;16.60;99.90;;;;;;4975967;28;20289;-77
2021/06/16 02:27:12;;;;;;;11.50;8.60;;;16.60;99.90;;;;;;4974896;28;20230;-77
2021/06/16 02:29:38;;;;;;;11.03;8.03;;;16.50;99.90;;;;;;4974088;28;20298;-77
2021/06/16 02:32:06;;;;;;;10.47;8.33;;;16.40;99.90;;;;;;4975920;28;20234;-78
2021/06/16 02:34:34;;;;;;;12.67;9.67;;;16.30;99.90;;;;;;4975261;28;20242;-78
2021/06/16 02:37:04;;;;;;;9.47;8.47;;;16.40;99.90;;;;;;4974753;28;20293;-77
2021/06/16 02:39:34;;;;;;;12.43;8.33;;;16.40;99.90;;;;;;4975310;28;20241;-77
2021/06/16 02:42:03;;;;;;;9.70;8.70;;;16.40;99.90;;;;;;4975015;28;20696;-77
2021/06/16 02:44:31;;;;;;;12.83;8.50;;;16.30;99.90;;;;;;4973679;28;20303;-78
2021/06/16 02:46:59;;;;;;;11.87;8.43;;;16.20;99.90;;;;;;4975700;28;20233;-77
2021/06/16 02:49:35;;;;;;;9.87;8.87;;;16.20;99.90;;;;;;4966273;28;20227;-77
2021/06/16 02:52:03;;;;;;;12.30;9.83;;;16.20;99.90;;;;;;4968661;28;20248;-77
2021/06/16 02:54:32;;;;;;;11.23;9.90;;;16.20;99.90;;;;;;4974595;28;20417;-78
2021/06/16 02:57:01;;;;;;;17.13;9.70;;;16.30;99.90;;;;;;4965808;28;20227;-78
2021/06/16 02:59:31;;;;;;;11.13;9.63;;;16.30;99.90;;;;;;4955262;29;20203;-78
2021/06/16 03:01:58;;;;;;;13.17;9.30;;;16.30;99.90;;;;;;4965623;28;20226;-77
2021/06/16 03:04:26;;;;;;;10.37;8.50;;;16.20;99.90;;;;;;4970170;28;20198;-77
2021/06/16 03:06:57;;;;;;;10.23;8.63;;;16.20;99.90;;;;;;4974845;28;20705;-78
2021/06/16 03:09:24;;;;;;;10.27;8.27;;;16.20;99.90;;;;;;4967893;28;20301;-77
2021/06/16 03:11:52;;;;;;;11.03;8.93;;;16.20;99.90;;;;;;4973189;28;20281;-77
2021/06/16 03:14:23;;;;;;;11.70;9.67;;;16.20;99.90;;;;;;4974855;28;20265;-77
2021/06/16 03:16:51;;;;;;;10.40;8.57;;;16.30;99.90;;;;;;4974594;28;20209;-77
2021/06/16 03:19:19;;;;;;;10.47;8.57;;;16.30;99.90;;;;;;4974237;28;20225;-77
2021/06/16 03:21:47;;;;;;;9.13;8.13;;;16.30;99.90;;;;;;4974476;28;20290;-77
2021/06/16 03:24:17;;;;;;;10.53;9.23;;;16.30;99.90;;;;;;4974837;28;20644;-78
2021/06/16 03:26:44;;;;;;;12.17;9.07;;;16.40;99.90;;;;;;4974562;28;20285;-77
2021/06/16 03:29:12;;;;;;;10.70;9.60;;;16.50;99.90;;;;;;4974314;28;20293;-77
2021/06/16 03:31:41;;;;;;;10.23;9.10;;;16.50;99.90;;;;;;4974649;28;20241;-76
2021/06/16 03:34:08;;;;;;;9.80;8.80;;;16.60;99.90;;;;;;4974234;28;20245;-77
2021/06/16 03:36:37;;;;;;;10.10;9.10;;;16.60;99.90;;;;;;4973983;28;20314;-77
2021/06/16 03:39:05;;;;;;;10.13;9.07;;;16.60;99.90;;;;;;4974577;28;20293;-77
2021/06/16 03:41:35;;;;;;;10.43;8.83;;;16.60;99.90;;;;;;4974261;28;20298;-77
2021/06/16 03:44:03;;;;;;;11.07;9.83;;;16.60;99.90;;;;;;4973975;28;20228;-77
2021/06/16 03:46:30;;;;;;;12.17;10.13;;;16.50;99.90;;;;;;4974263;28;20238;-77
2021/06/16 03:48:59;;;;;;;12.60;10.53;;;16.50;99.90;;;;;;4962729;28;20262;-77
2021/06/16 03:51:27;;;;;;;10.40;9.17;;;16.60;99.90;;;;;;4969410;28;20743;-77
2021/06/16 03:53:55;;;;;;;13.70;10.30;;;16.50;99.90;;;;;;4973536;28;20214;-77
2021/06/16 03:56:23;;;;;;;12.07;10.87;;;16.50;99.90;;;;;;4973626;28;20242;-77
2021/06/16 03:58:52;;;;;;;12.87;10.87;;;16.50;99.90;;;;;;4967754;28;20230;-77
2021/06/16 04:01:20;;;;;;;17.10;9.83;;;16.60;99.90;;;;;;4974013;28;20289;-77
2021/06/16 04:03:47;;;;;;;9.93;8.87;;;16.50;99.90;;;;;;4973155;28;20294;-77
2021/06/16 04:06:16;;;;;;;16.00;8.60;;;16.30;99.90;;;;;;4954643;28;20266;-77
2021/06/16 04:08:45;;;;;;;13.43;9.20;;;16.20;99.90;;;;;;4956382;28;20552;-77
2021/06/16 04:11:12;;;;;;;13.07;9.80;;;16.10;99.90;;;;;;4956865;28;20306;-77
2021/06/16 04:13:39;;;;;;;14.13;10.47;;;16.20;99.90;;;;;;4954503;28;20708;-77
2021/06/16 04:16:08;;;;;;;14.17;10.53;;;16.30;99.90;;;;;;4960562;28;20281;-78
2021/06/16 04:18:35;;;;;;;14.20;10.70;;;16.40;99.90;;;;;;4973165;28;20198;-77
2021/06/16 04:21:02;;;;;;;15.90;10.30;;;16.50;99.90;;;;;;4969463;28;20238;-77
2021/06/16 04:23:30;;;;;;;12.70;10.60;;;16.60;99.90;;;;;;4965386;28;20278;-77
2021/06/16 04:25:57;;;;;;;13.17;10.00;;;16.60;99.90;;;;;;4958918;28;20215;-79
2021/06/16 04:28:23;;;;;;;15.17;11.43;;;16.70;99.90;;;;;;4970934;28;20289;-77
2021/06/16 04:30:51;;;;;;;16.23;11.80;;;16.70;99.90;;;;;;4974030;28;20198;-77
2021/06/16 04:33:19;;;;;;;13.70;11.60;;;16.90;99.90;;;;;;4973222;28;20249;-78
2021/06/16 04:35:46;;;;;;;13.43;11.90;;;16.90;99.90;;;;;;4972675;28;20282;-77
2021/06/16 04:38:13;;;;;;;17.03;11.27;;;17.00;99.90;;;;;;4973590;28;20297;-78
2021/06/16 04:40:40;;;;;;;13.93;11.80;;;17.10;99.90;;;;;;4973241;28;20297;-77
2021/06/16 04:43:06;;;;;;;12.37;10.80;;;17.10;99.90;;;;;;4973387;28;20238;-77
2021/06/16 04:45:34;;;;;;;13.57;11.03;;;17.20;99.90;;;;;;4973198;28;20578;-77
2021/06/16 04:48:01;;;;;;;12.67;10.33;;;17.20;99.90;;;;;;4973528;28;20265;-78
2021/06/16 04:50:29;;;;;;;11.80;10.60;;;17.30;99.90;;;;;;4972980;28;20649;-77
2021/06/16 04:52:56;;;;;;;14.03;10.67;;;17.30;99.90;;;;;;4973237;28;20290;-78
2021/06/16 04:55:23;;;;;;;12.87;10.40;;;17.30;99.90;;;;;;4972766;28;20700;-78
2021/06/16 04:57:50;;;;;;;14.43;11.40;;;17.30;99.90;;;;;;4973121;28;20202;-78
2021/06/16 05:00:18;;;;;;;13.97;10.63;;;17.40;99.90;;;;;;4968582;28;20204;-78
2021/06/16 05:02:45;;;;;;;15.07;10.57;;;17.50;99.90;;;;;;4954299;29;20238;-78
2021/06/16 05:05:12;;;;;;;15.77;11.07;;;17.70;99.90;;;;;;4953755;29;20227;-81
2021/06/16 05:07:40;;;;;;;16.57;10.63;;;17.80;99.90;;;;;;4957199;28;20233;-78
2021/06/16 05:10:08;;;;;;;14.07;10.90;;;17.90;99.90;;;;;;4956511;28;20256;-79
2021/06/16 05:12:35;;;;;;;11.83;10.27;;;18.00;99.90;;;;;;4953577;29;20902;-78
2021/06/16 05:15:02;;;;;;;13.20;10.03;;;18.10;99.90;;;;;;4953589;29;20277;-79
2021/06/16 05:17:28;;;;;;;15.10;10.63;;;18.30;99.90;;;;;;4953440;28;20207;-79
2021/06/16 05:19:57;;;;;;;13.03;9.90;;;18.40;99.90;;;;;;4956991;29;20211;-78
2021/06/16 05:22:25;;;;;;;13.30;9.83;;;18.50;99.90;;;;;;4957294;29;20199;-79
2021/06/16 05:24:54;;;;;;;13.23;10.30;;;18.60;99.90;;;;;;4967027;28;20301;-79
2021/06/16 05:27:21;;;;;;;11.97;9.57;;;18.70;99.90;;;;;;4972772;28;20261;-79
2021/06/16 05:29:51;;;;;;;12.43;9.23;;;18.90;99.90;;;;;;4957632;29;20203;-79
2021/06/16 05:32:18;;;;;;;12.33;9.27;;;19.40;99.90;;;;;;4957655;29;20658;-78
2021/06/16 05:34:44;;;;;;;11.75;9.18;;;19.80;99.90;;;;;;4957519;29;20285;-78
2021/06/16 05:37:12;;;;;;;10.25;8.75;;;20.20;99.90;;;;;;4957349;29;20290;-78
2021/06/16 05:39:39;;;;;;;9.73;8.57;;;20.50;99.90;;;;;;4964617;28;20261;-78
2021/06/16 05:42:07;;;;;;;10.82;8.10;;;20.80;99.90;;;;;;4976992;28;20222;-79
2021/06/16 05:44:35;;;;;;;9.23;8.23;;;21.10;99.90;;;;;;4976274;28;20984;-78
2021/06/16 05:47:02;;;;;;;11.93;8.82;;;21.30;99.90;;;;;;4964639;28;20230;-77
2021/06/16 05:49:29;;;;;;;11.48;8.18;;;21.50;99.90;;;;;;4976535;28;20299;-79
2021/06/16 05:51:56;;;;;;;11.23;8.00;;;21.80;99.90;;;;;;4967810;28;20363;-80
2021/06/16 05:54:23;;;;;;;9.75;8.25;;;21.90;99.90;;;;;;4973711;28;20317;-82
2021/06/16 05:56:51;;;;;;;12.57;8.13;;;22.40;99.90;;;;;;4973679;28;20237;-80
2021/06/16 05:59:19;;;;;;;9.27;7.60;;;23.20;99.90;;;;;;4966956;28;20211;-79
2021/06/16 06:01:46;;;;;;;8.48;7.30;;;23.40;99.90;;;;;;4957215;28;20773;-79
2021/06/16 06:04:13;;;;;;;12.13;7.18;;;23.80;99.90;;;;;;4976526;28;20233;-79
2021/06/16 06:06:40;;;;;;;9.15;7.38;;;24.40;99.90;;;;;;4975623;28;20755;-79
2021/06/16 06:09:08;;;;;;;7.80;6.97;;;24.80;99.90;;;;;;4956939;28;20303;-79
2021/06/16 06:11:36;;;;;;;10.20;7.05;;;25.10;99.90;;;;;;4961481;28;20202;-79
2021/06/16 06:14:04;;;;;;;9.77;7.15;;;24.60;99.90;;;;;;4975861;28;20226;-79
2021/06/16 06:16:32;;;;;;;10.63;7.43;;;24.70;99.90;;;;;;4975562;28;20241;-79
2021/06/16 06:18:59;;;;;;;7.63;6.65;;;25.40;99.90;;;;;;4974309;28;20610;-79
2021/06/16 06:21:30;;;;;;;7.38;5.95;;;26.50;99.90;;;;;;4973269;28;20300;-79
2021/06/16 06:23:57;;;;;;;7.80;6.03;;;27.00;99.90;;;;;;4968705;28;20205;-79
2021/06/16 06:26:24;;;;;;;7.38;5.70;;;27.40;99.90;;;;;;4970753;28;20211;-79
2021/06/16 06:28:51;;;;;;;5.88;5.20;;;27.50;99.90;;;;;;4973986;28;20289;-79
2021/06/16 06:31:18;;;;;;;10.60;6.15;;;27.20;99.90;;;;;;4967269;28;20257;-79
2021/06/16 06:33:46;;;;;;;6.00;5.05;;;27.60;99.90;;;;;;4976995;28;20304;-79
2021/06/16 06:36:13;;;;;;;5.22;4.72;;;28.10;99.90;;;;;;4965477;28;20784;-79
2021/06/16 06:38:40;;;;;;;5.60;4.97;;;28.00;99.90;;;;;;4971589;28;20286;-80
2021/06/16 06:41:07;;;;;;;5.70;5.00;;;27.50;99.90;;;;;;4972415;28;20680;-80
2021/06/16 06:43:34;;;;;;;6.50;5.35;;;26.30;99.90;;;;;;4955962;28;20290;-79
2021/06/16 06:46:01;;;;;;;5.40;4.45;;;27.20;99.90;;;;;;4967081;28;20229;-80
2021/06/16 06:48:28;;;;;;;5.70;4.60;;;28.30;99.90;;;;;;4962761;28;20310;-80
2021/06/16 06:50:56;;;;;;;8.07;4.80;;;28.80;99.90;;;;;;4967617;28;20284;-79
2021/06/16 06:53:24;;;;;;;6.45;4.20;;;28.60;99.90;;;;;;4965166;28;20987;-80
2021/06/16 06:55:51;;;;;;;4.45;3.70;;;29.50;99.90;;;;;;4961972;28;20226;-80
2021/06/16 06:58:18;;;;;;;3.80;3.38;;;29.60;99.90;;;;;;4970878;28;20198;-79
2021/06/16 07:00:45;;;;;;;7.13;3.60;;;30.50;99.90;;;;;;4970335;28;20282;-80
2021/06/16 07:03:12;;;;;;;4.65;4.00;;;30.20;99.90;;;;;;4958098;28;20231;-80
2021/06/16 07:05:39;;;;;;;4.30;3.70;;;30.30;99.90;;;;;;4967050;28;20277;-80
2021/06/16 07:08:08;;;;;;;4.28;3.60;;;30.50;99.90;;;;;;4966499;28;20234;-79
2021/06/16 07:10:35;;;;;;;3.55;3.25;;;29.70;99.90;;;;;;4954913;28;20203;-78
2021/06/16 07:13:03;;;;;;;3.78;3.42;;;29.60;99.90;;;;;;4955712;28;20649;-78
2021/06/16 07:15:31;;;;;;;3.40;3.10;;;28.80;99.90;;;;;;4966159;28;20229;-78
2021/06/16 07:17:58;;;;;;;6.50;3.53;;;29.10;99.90;;;;;;4972691;28;20201;-78
2021/06/16 07:20:25;;;;;;;3.90;3.25;;;29.20;99.90;;;;;;4968135;28;20206;-78
2021/06/16 07:22:53;;;;;;;4.13;3.53;;;29.40;99.90;;;;;;4962784;28;20239;-78
2021/06/16 07:25:21;;;;;;;4.72;3.20;;;29.40;99.90;;;;;;4964497;28;20240;-78
2021/06/16 07:27:49;;;;;;;7.07;3.70;;;29.10;99.90;;;;;;4968428;28;20293;-78
2021/06/16 07:30:17;;;;;;;5.90;3.67;;;29.40;99.90;;;;;;4967651;28;20238;-78
2021/06/16 07:32:44;;;;;;;4.50;3.22;;;29.50;99.90;;;;;;4971995;28;20210;-78
2021/06/16 07:35:12;;;;;;;6.63;3.78;;;29.60;99.90;;;;;;4966957;28;20307;-79
2021/06/16 07:37:40;;;;;;;4.00;3.60;;;29.60;99.90;;;;;;4968951;28;20202;-78
2021/06/16 07:40:09;;;;;;;4.50;4.03;;;29.00;99.90;;;;;;4961921;28;20635;-78
2021/06/16 07:42:37;;;;;;;4.63;3.83;;;27.80;99.90;;;;;;4967183;28;20688;-78
2021/06/16 07:45:05;;;;;;;4.57;3.50;;;28.00;99.90;;;;;;4979709;28;20608;-78
2021/06/16 07:47:32;;;;;;;3.88;3.03;;;28.20;99.90;;;;;;4950318;28;20233;-78
2021/06/16 07:49:59;;;;;;;5.18;3.33;;;28.60;99.90;;;;;;4961904;28;20278;-78
2021/06/16 07:52:27;;;;;;;4.30;3.75;;;29.10;99.90;;;;;;4968182;28;20233;-78
2021/06/16 07:54:54;;;;;;;4.32;3.92;;;28.60;99.90;;;;;;4968421;28;20231;-78
2021/06/16 07:57:21;;;;;;;3.72;3.40;;;29.00;99.90;;;;;;4972036;28;20285;-78
2021/06/16 07:59:50;;;;;;;4.40;3.88;;;28.50;99.90;;;;;;4968838;28;20695;-78
2021/06/16 08:02:19;;;;;;;5.72;3.80;;;28.40;99.90;;;;;;4961948;28;20250;-79
2021/06/16 08:04:46;;;;;;;5.85;3.50;;;28.60;99.90;;;;;;4959064;28;20754;-79
2021/06/16 08:07:13;;;;;;;4.03;3.55;;;28.70;99.90;;;;;;4964561;28;20195;-78
2021/06/16 08:09:43;;;;;;;5.88;4.13;;;29.50;99.90;;;;;;4967033;28;20278;-78
2021/06/16 08:12:10;;;;;;;6.03;4.03;;;29.40;99.90;;;;;;4968224;28;20203;-78
2021/06/16 08:14:38;;;;;;;4.50;3.83;;;29.10;99.90;;;;;;4972590;28;20225;-78
2021/06/16 08:17:07;;;;;;;4.70;4.13;;;29.40;99.90;;;;;;4972796;28;20234;-78
2021/06/16 08:19:35;;;;;;;4.95;4.40;;;29.70;99.90;;;;;;4973580;28;20230;-78
2021/06/16 08:22:02;;;;;;;4.50;4.10;;;29.50;99.90;;;;;;4969334;28;20626;-79
2021/06/16 08:24:29;;;;;;;4.55;4.15;;;29.20;99.90;;;;;;4967162;28;20282;-78
2021/06/16 08:26:56;;;;;;;5.95;4.20;;;30.10;99.90;;;;;;4969736;28;20286;-78
2021/06/16 08:29:23;;;;;;;5.72;3.85;;;31.30;99.90;;;;;;4962429;28;20334;-78
2021/06/16 08:31:50;;;;;;;5.78;4.30;;;30.60;99.90;;;;;;4967464;28;20282;-78
2021/06/16 08:34:19;;;;;;;5.72;3.80;;;30.40;99.90;;;;;;4967703;28;20356;-78
2021/06/16 08:36:46;;;;;;;5.45;4.05;;;30.50;99.90;;;;;;4971204;28;20253;-78
2021/06/16 08:39:13;;;;;;;4.57;4.18;;;29.40;99.90;;;;;;4972038;28;20328;-78
2021/06/16 08:41:41;;;;;;;5.47;4.32;;;30.40;99.90;;;;;;4968898;28;21009;-78
2021/06/16 08:44:09;;;;;;;6.47;4.20;;;31.40;99.90;;;;;;4963423;28;20304;-78
2021/06/16 08:46:36;;;;;;;5.00;3.92;;;31.30;99.90;;;;;;4965937;28;20237;-78
2021/06/16 08:49:04;;;;;;;4.47;4.07;;;31.50;99.90;;;;;;4961483;28;20253;-78
2021/06/16 08:51:33;;;;;;;4.20;3.90;;;31.50;99.90;;;;;;4964939;28;20330;-79
2021/06/16 08:54:00;;;;;;;5.38;4.18;;;31.30;99.90;;;;;;4962089;28;20258;-78
2021/06/16 08:56:27;;;;;;;4.18;3.80;;;32.00;99.90;;;;;;4963000;28;20309;-78
2021/06/16 08:58:54;;;;;;;3.83;3.53;;;32.20;99.90;;;;;;4962722;28;20234;-78
2021/06/16 09:01:21;;;;;;;4.63;4.13;;;30.50;99.90;;;;;;4958779;28;20289;-78
2021/06/16 09:03:49;;;;;;;5.68;4.05;;;30.20;99.90;;;;;;4958117;28;20203;-78
2021/06/16 09:06:17;;;;;;;5.20;4.00;;;30.70;99.90;;;;;;4958312;28;20227;-78
2021/06/16 09:08:54;;;;;;;4.32;3.78;;;30.80;99.90;;;;;;4963228;28;20241;-78
2021/06/16 09:11:21;;;;;;;4.63;3.88;;;31.80;99.90;;;;;;4957330;28;20621;-78
2021/06/16 09:13:48;;;;;;;4.10;3.72;;;32.40;99.90;;;;;;4963835;28;20241;-79
2021/06/16 09:16:27;;;;;;;5.28;4.15;;;31.70;99.90;;;;;;4964909;28;20254;-78
2021/06/16 09:18:55;;;;;;;4.43;4.05;;;31.00;99.90;;;;;;4965629;28;20199;-79
2021/06/16 09:21:35;;;;;;;5.97;3.80;;;30.90;99.90;;;;;;4969445;28;20291;-78
2021/06/16 09:24:05;;;;;;;4.30;3.90;;;31.30;99.90;;;;;;4968729;28;20648;-79
2021/06/16 09:26:32;;;;;;;4.38;3.97;;;31.10;99.90;;;;;;4959175;28;20207;-79
2021/06/16 09:29:00;;;;;;;4.50;3.90;;;30.90;99.90;;;;;;4964651;28;20286;-78
2021/06/16 09:31:34;;;;;;;6.03;3.90;;;31.70;99.90;;;;;;4961685;28;20289;-78
2021/06/16 09:34:07;;;;;;;5.20;4.22;;;32.40;99.90;;;;;;4967914;28;20281;-78
2021/06/16 09:36:51;;;;;;;4.90;3.88;;;33.20;99.90;;;;;;4971617;28;20700;-78
2021/06/16 09:39:21;;;;;;;5.05;3.88;;;31.80;99.90;;;;;;4962304;28;20230;-78
2021/06/16 09:41:57;;;;;;;4.03;3.72;;;31.50;99.90;;;;;;4971040;28;20234;-78
2021/06/16 09:44:45;;;;;;;4.35;3.88;;;32.70;99.90;;;;;;4966622;28;20245;-78
2021/06/16 09:47:17;;;;;;;4.05;3.67;;;32.00;99.90;;;;;;4935968;28;20204;-78
2021/06/16 09:49:53;;;;;;;6.15;3.60;;;31.60;99.90;;;;;;4970189;28;20235;-78
2021/06/16 09:52:35;;;;;;;5.10;3.78;;;31.20;99.90;;;;;;4961168;28;20237;-78
2021/06/16 09:55:06;;;;;;;4.10;3.70;;;31.30;99.90;;;;;;4960085;28;20302;-77
2021/06/16 09:57:33;;;;;;;3.75;3.45;;;31.80;99.90;;;;;;4962777;28;20211;-78
2021/06/16 10:00:02;;;;;;;4.68;3.67;;;32.20;99.90;;;;;;4965053;28;20294;-78
2021/06/16 10:02:31;;;;;;;4.10;3.80;;;32.90;99.90;;;;;;4962230;28;20672;-77
2021/06/16 10:04:59;;;;;;;4.22;3.90;;;32.00;99.90;;;;;;4966055;28;20202;-79
2021/06/16 10:07:27;;;;;;;5.15;3.78;;;31.30;99.90;;;;;;4976845;28;20675;-79
2021/06/16 10:09:59;;;;;;;4.07;3.67;;;31.10;99.90;;;;;;4968592;28;20289;-79
2021/06/16 10:12:33;;;;;;;4.30;3.90;;;32.00;99.90;;;;;;4966156;28;20707;-78
2021/06/16 10:15:03;;;;;;;6.05;3.92;;;31.20;99.90;;;;;;4973753;28;20230;-79
2021/06/16 10:17:30;;;;;;;4.57;3.25;;;30.90;99.90;;;;;;4974546;28;20203;-79
2021/06/16 10:19:57;;;;;;;4.00;3.60;;;30.90;99.90;;;;;;4964401;28;20239;-79
2021/06/16 10:22:30;;;;;;;4.30;3.90;;;30.60;99.90;;;;;;4969225;28;20299;-79
2021/06/16 10:24:57;;;;;;;4.13;3.72;;;31.40;99.90;;;;;;4967480;28;20714;-79
2021/06/16 10:27:36;;;;;;;4.03;3.70;;;32.10;99.90;;;;;;4970152;28;20290;-78
2021/06/16 10:30:07;;;;;;;4.25;3.80;;;32.30;99.90;;;;;;4964712;28;20658;-79
2021/06/16 10:32:37;;;;;;;5.10;4.20;;;31.30;99.90;;;;;;4971463;28;20199;-77
2021/06/16 10:35:05;;;;;;;4.20;3.78;;;30.50;99.90;;;;;;4973197;28;20221;-78
2021/06/16 10:37:35;;;;;;;4.85;4.10;;;30.00;99.90;;;;;;4962744;28;20238;-78
2021/06/16 10:40:44;;;;;;;5.95;3.95;;;29.70;99.90;;;;;;4969527;28;20286;-78
2021/06/16 10:43:31;;;;;;;4.28;3.90;;;29.80;99.90;;;;;;4964575;28;20195;-78
2021/06/16 10:46:04;;;;;;;4.50;3.90;;;29.60;99.90;;;;;;4957685;28;20206;-77
2021/06/16 10:48:49;;;;;;;7.65;3.72;;;29.90;99.90;;;;;;4964041;28;20233;-77
2021/06/16 10:51:38;;;;;;;5.38;3.53;;;30.10;99.90;;;;;;4961283;28;20266;-78
2021/06/16 10:54:23;;;;;;;3.70;3.40;;;30.40;99.90;;;;;;4972965;28;20234;-77
2021/06/16 10:56:56;;;;;;;4.60;3.35;;;30.10;99.90;;;;;;4963487;28;20305;-78
2021/06/16 11:00:02;;;;;;;3.90;3.28;;;29.90;99.90;;;;;;4966388;28;20217;-77
2021/06/16 11:03:02;;;;;;;4.15;3.40;;;29.60;99.90;;;;;;4961640;28;20733;-76
2021/06/16 11:05:40;;;;;;;3.63;3.33;;;30.00;99.90;;;;;;4963506;28;20217;-76
2021/06/16 11:08:13;;;;;;;4.15;3.63;;;30.60;99.90;;;;;;4971037;28;20210;-77
2021/06/16 11:10:54;;;;;;;4.18;3.78;;;30.40;99.90;;;;;;4970719;28;20591;-75
2021/06/16 11:13:51;;;;;;;3.60;3.30;;;30.90;99.90;;;;;;4969667;28;20230;-77
2021/06/16 11:16:40;;;;;;;4.05;3.75;;;31.10;99.90;;;;;;4894011;29;20319;-76
2021/06/16 11:19:49;;;;;;;3.75;3.45;;;30.90;99.90;;;;;;4894431;29;20639;-76
2021/06/16 11:22:37;;;;;;;3.92;3.22;;;30.60;99.90;;;;;;4892543;29;20638;-76
2021/06/16 11:25:38;;;;;;;4.20;3.53;;;30.80;99.90;;;;;;4894001;29;20205;-76
2021/06/16 11:28:12;;;;;;;5.47;3.78;;;31.30;99.90;;;;;;4893989;29;20244;-77
2021/06/16 11:31:02;;;;;;;3.72;3.33;;;31.10;99.90;;;;;;4893962;29;20265;-76
2021/06/16 11:33:32;;;;;;;3.90;3.58;;;30.80;99.90;;;;;;4891901;29;20706;-76
2021/06/16 11:36:03;;;;;;;5.50;3.40;;;30.80;99.90;;;;;;4893716;29;20710;-77
2021/06/16 11:38:34;;;;;;;4.63;3.55;;;30.90;99.90;;;;;;4896886;29;20256;-77
2021/06/16 11:41:04;;;;;;;3.95;3.58;;;31.30;99.90;;;;;;4893288;29;20296;-76
2021/06/16 11:43:33;;;;;;;3.78;3.42;;;31.00;99.90;;;;;;4894382;29;20289;-77
2021/06/16 11:46:01;;;;;;;3.72;3.30;;;30.60;99.90;;;;;;4900595;29;20291;-76
2021/06/16 11:48:28;;;;;;;4.57;3.50;;;30.40;99.90;;;;;;4894447;29;20268;-76
2021/06/16 11:50:55;;;;;;;4.80;3.90;;;30.10;99.90;;;;;;4948510;28;20792;-77
2021/06/16 11:53:28;;;;;;;4.28;3.35;;;30.10;99.90;;;;;;4972305;28;20227;-76
2021/06/16 11:55:56;;;;;;;3.75;3.38;;;30.00;99.90;;;;;;4971397;28;20273;-77
2021/06/16 11:58:29;;;;;;;3.97;3.60;;;30.00;99.90;;;;;;4971067;28;20310;-76
2021/06/16 12:01:10;;;;;;;4.97;3.22;;;29.80;99.90;;;;;;4961341;28;20229;-76
2021/06/16 12:03:39;;;;;;;3.92;3.50;;;29.90;99.90;;;;;;4967870;28;20241;-76
2021/06/16 12:06:08;;;;;;;7.53;3.20;;;30.40;99.90;;;;;;4974201;28;20234;-76
2021/06/16 12:08:36;;;;;;;3.40;3.17;;;30.20;99.90;;;;;;4964975;28;20265;-77
2021/06/16 12:11:22;;;;;;;3.58;3.25;;;30.00;99.90;;;;;;4971910;28;20234;-76
2021/06/16 12:13:57;;;;;;;3.92;3.50;;;30.00;99.90;;;;;;4972064;28;20289;-76
2021/06/16 12:16:25;;;;;;;5.00;4.57;;;29.90;99.90;;;;;;4971947;28;20311;-77
2021/06/16 12:19:06;;;;;;;5.85;3.95;;;29.90;99.90;;;;;;4965693;28;20229;-76
2021/06/16 12:21:33;;;;;;;4.85;4.30;;;30.00;99.90;;;;;;4974885;28;20225;-76
2021/06/16 12:24:00;;;;;;;5.05;4.22;;;29.80;99.90;;;;;;4966577;28;20261;-75
2021/06/16 12:26:29;;;;;;;5.63;4.30;;;29.60;99.90;;;;;;4963889;28;20240;-76
2021/06/16 12:28:57;;;;;;;6.05;3.88;;;29.20;99.90;;;;;;4968091;28;20286;-76
2021/06/16 12:31:28;;;;;;;4.30;3.90;;;29.20;99.90;;;;;;4967446;28;20210;-76
2021/06/16 12:34:03;;;;;;;4.15;3.85;;;29.30;99.90;;;;;;4968914;28;20213;-76
2021/06/16 12:36:33;;;;;;;4.78;3.72;;;29.40;99.90;;;;;;4971466;28;20229;-76
2021/06/16 12:39:10;;;;;;;4.75;4.00;;;29.40;99.90;;;;;;4972570;28;20198;-76
2021/06/16 12:41:41;;;;;;;5.63;5.13;;;29.60;99.90;;;;;;4962370;28;20297;-76
2021/06/16 12:44:20;;;;;;;5.57;4.40;;;30.00;99.90;;;;;;4970575;28;20305;-76
2021/06/16 12:46:54;;;;;;;4.88;4.07;;;30.10;99.90;;;;;;4971249;28;20726;-76
2021/06/16 12:49:22;;;;;;;4.57;3.70;;;29.90;99.90;;;;;;4962013;28;20301;-76
2021/06/16 12:51:51;;;;;;;4.15;3.75;;;29.70;99.90;;;;;;4970837;28;20266;-77
2021/06/16 12:54:32;;;;;;;8.48;5.68;;;29.80;99.90;;;;;;4974088;28;20201;-76